sensor_id;sensor_type;location;lat;lon;timestamp;temperature;humidity
40932;DHT22;36257;46.052;12.540;2024-01-30T00:01:48;3.10;87.50
40932;DHT22;36257;46.052;12.540;2024-01-30T00:04:14;3.10;87.70
40932;DHT22;36257;46.052;12.540;2024-01-30T00:06:40;3.20;87.80
40932;DHT22;36257;46.052;12.540;2024-01-30T00:09:05;3.10;87.80
40932;DHT22;36257;46.052;12.540;2024-01-30T00:11:31;3.10;88.00
40932;DHT22;36257;46.052;12.540;2024-01-30T00:13:57;3.10;88.30
40932;DHT22;36257;46.052;12.540;2024-01-30T00:16:23;3.00;88.40
40932;DHT22;36257;46.052;12.540;2024-01-30T00:18:50;3.00;88.50
40932;DHT22;36257;46.052;12.540;2024-01-30T00:21:16;3.00;88.40
40932;DHT22;36257;46.052;12.540;2024-01-30T00:23:42;3.00;88.40
40932;DHT22;36257;46.052;12.540;2024-01-30T00:26:07;3.00;88.40
40932;DHT22;36257;46.052;12.540;2024-01-30T00:28:33;3.00;88.00
40932;DHT22;36257;46.052;12.540;2024-01-30T00:30:58;3.00;87.90
40932;DHT22;36257;46.052;12.540;2024-01-30T00:33:24;3.00;87.90
40932;DHT22;36257;46.052;12.540;2024-01-30T00:35:50;2.90;88.20
40932;DHT22;36257;46.052;12.540;2024-01-30T00:38:15;3.00;88.50
40932;DHT22;36257;46.052;12.540;2024-01-30T00:40:41;3.00;88.50
40932;DHT22;36257;46.052;12.540;2024-01-30T00:43:07;3.10;88.50
40932;DHT22;36257;46.052;12.540;2024-01-30T00:45:33;3.10;88.50
40932;DHT22;36257;46.052;12.540;2024-01-30T00:47:59;3.00;88.00
40932;DHT22;36257;46.052;12.540;2024-01-30T00:50:25;3.10;87.90
40932;DHT22;36257;46.052;12.540;2024-01-30T00:52:50;3.10;88.00
40932;DHT22;36257;46.052;12.540;2024-01-30T00:55:16;3.10;88.20
40932;DHT22;36257;46.052;12.540;2024-01-30T00:57:42;3.10;88.00
40932;DHT22;36257;46.052;12.540;2024-01-30T01:00:08;3.20;87.60
40932;DHT22;36257;46.052;12.540;2024-01-30T01:02:37;3.20;87.20
40932;DHT22;36257;46.052;12.540;2024-01-30T01:05:04;3.20;86.90
40932;DHT22;36257;46.052;12.540;2024-01-30T01:07:30;3.30;86.90
40932;DHT22;36257;46.052;12.540;2024-01-30T01:09:56;3.40;86.70
40932;DHT22;36257;46.052;12.540;2024-01-30T01:12:22;3.50;86.50
40932;DHT22;36257;46.052;12.540;2024-01-30T01:14:48;3.50;86.30
40932;DHT22;36257;46.052;12.540;2024-01-30T01:17:13;3.50;86.50
40932;DHT22;36257;46.052;12.540;2024-01-30T01:19:39;3.50;86.60
40932;DHT22;36257;46.052;12.540;2024-01-30T01:22:04;3.60;86.50
40932;DHT22;36257;46.052;12.540;2024-01-30T01:24:31;3.60;86.30
40932;DHT22;36257;46.052;12.540;2024-01-30T01:26:58;3.60;86.20
40932;DHT22;36257;46.052;12.540;2024-01-30T01:29:24;3.60;86.10
40932;DHT22;36257;46.052;12.540;2024-01-30T01:31:59;3.60;86.00
40932;DHT22;36257;46.052;12.540;2024-01-30T01:34:24;3.60;86.10
40932;DHT22;36257;46.052;12.540;2024-01-30T01:36:51;3.60;86.00
40932;DHT22;36257;46.052;12.540;2024-01-30T01:39:17;3.60;85.90
40932;DHT22;36257;46.052;12.540;2024-01-30T01:41:43;3.60;85.60
40932;DHT22;36257;46.052;12.540;2024-01-30T01:44:09;3.60;85.80
40932;DHT22;36257;46.052;12.540;2024-01-30T01:46:35;3.60;86.00
40932;DHT22;36257;46.052;12.540;2024-01-30T01:49:02;3.60;86.20
40932;DHT22;36257;46.052;12.540;2024-01-30T01:51:30;3.50;86.10
40932;DHT22;36257;46.052;12.540;2024-01-30T01:53:58;3.50;86.30
40932;DHT22;36257;46.052;12.540;2024-01-30T01:56:27;3.30;86.70
40932;DHT22;36257;46.052;12.540;2024-01-30T01:58:55;3.10;87.10
40932;DHT22;36257;46.052;12.540;2024-01-30T02:01:21;3.10;87.50
40932;DHT22;36257;46.052;12.540;2024-01-30T02:03:47;3.10;87.80
40932;DHT22;36257;46.052;12.540;2024-01-30T02:06:16;3.20;87.80
40932;DHT22;36257;46.052;12.540;2024-01-30T02:08:42;3.10;87.50
40932;DHT22;36257;46.052;12.540;2024-01-30T02:11:08;3.10;87.40
40932;DHT22;36257;46.052;12.540;2024-01-30T02:13:36;3.10;87.40
40932;DHT22;36257;46.052;12.540;2024-01-30T02:16:01;3.00;87.70
40932;DHT22;36257;46.052;12.540;2024-01-30T02:18:27;3.00;87.70
40932;DHT22;36257;46.052;12.540;2024-01-30T02:20:54;2.90;87.90
40932;DHT22;36257;46.052;12.540;2024-01-30T02:23:24;2.90;87.50
40932;DHT22;36257;46.052;12.540;2024-01-30T02:25:50;3.10;86.60
40932;DHT22;36257;46.052;12.540;2024-01-30T02:28:18;3.10;86.20
40932;DHT22;36257;46.052;12.540;2024-01-30T02:30:44;3.10;86.30
40932;DHT22;36257;46.052;12.540;2024-01-30T02:33:10;3.10;86.40
40932;DHT22;36257;46.052;12.540;2024-01-30T02:35:35;3.00;86.70
40932;DHT22;36257;46.052;12.540;2024-01-30T02:38:01;3.00;87.00
40932;DHT22;36257;46.052;12.540;2024-01-30T02:40:27;3.00;87.00
40932;DHT22;36257;46.052;12.540;2024-01-30T02:42:52;2.90;86.90
40932;DHT22;36257;46.052;12.540;2024-01-30T02:45:18;2.90;86.70
40932;DHT22;36257;46.052;12.540;2024-01-30T02:47:44;2.90;86.70
40932;DHT22;36257;46.052;12.540;2024-01-30T02:50:09;2.90;86.70
40932;DHT22;36257;46.052;12.540;2024-01-30T02:52:35;3.00;86.50
40932;DHT22;36257;46.052;12.540;2024-01-30T02:55:01;2.90;86.50
40932;DHT22;36257;46.052;12.540;2024-01-30T02:57:28;2.90;86.40
40932;DHT22;36257;46.052;12.540;2024-01-30T02:59:54;3.00;86.30
40932;DHT22;36257;46.052;12.540;2024-01-30T03:02:20;3.00;86.00
40932;DHT22;36257;46.052;12.540;2024-01-30T03:04:45;3.00;85.90
40932;DHT22;36257;46.052;12.540;2024-01-30T03:07:11;3.00;85.90
40932;DHT22;36257;46.052;12.540;2024-01-30T03:09:37;2.90;86.00
40932;DHT22;36257;46.052;12.540;2024-01-30T03:12:03;2.90;86.40
40932;DHT22;36257;46.052;12.540;2024-01-30T03:14:31;2.80;86.70
40932;DHT22;36257;46.052;12.540;2024-01-30T03:16:57;2.80;86.60
40932;DHT22;36257;46.052;12.540;2024-01-30T03:19:23;2.80;86.50
40932;DHT22;36257;46.052;12.540;2024-01-30T03:21:48;2.70;86.60
40932;DHT22;36257;46.052;12.540;2024-01-30T03:24:14;2.70;86.40
40932;DHT22;36257;46.052;12.540;2024-01-30T03:26:40;2.70;86.10
40932;DHT22;36257;46.052;12.540;2024-01-30T03:29:05;2.70;85.80
40932;DHT22;36257;46.052;12.540;2024-01-30T03:31:31;2.70;85.90
40932;DHT22;36257;46.052;12.540;2024-01-30T03:33:57;2.70;86.30
40932;DHT22;36257;46.052;12.540;2024-01-30T03:36:23;2.60;86.70
40932;DHT22;36257;46.052;12.540;2024-01-30T03:38:49;2.50;87.00
40932;DHT22;36257;46.052;12.540;2024-01-30T03:41:14;2.50;87.40
40932;DHT22;36257;46.052;12.540;2024-01-30T03:43:40;2.50;87.30
40932;DHT22;36257;46.052;12.540;2024-01-30T03:46:06;2.50;87.10
40932;DHT22;36257;46.052;12.540;2024-01-30T03:48:32;2.50;86.90
40932;DHT22;36257;46.052;12.540;2024-01-30T03:50:57;2.50;86.90
40932;DHT22;36257;46.052;12.540;2024-01-30T03:53:23;2.50;86.50
40932;DHT22;36257;46.052;12.540;2024-01-30T03:55:49;2.60;86.20
40932;DHT22;36257;46.052;12.540;2024-01-30T03:58:15;2.60;86.10
40932;DHT22;36257;46.052;12.540;2024-01-30T04:00:40;2.60;85.80
40932;DHT22;36257;46.052;12.540;2024-01-30T04:03:06;2.60;85.70
40932;DHT22;36257;46.052;12.540;2024-01-30T04:05:32;2.60;85.80
40932;DHT22;36257;46.052;12.540;2024-01-30T04:07:58;2.60;86.10
40932;DHT22;36257;46.052;12.540;2024-01-30T04:10:24;2.50;86.20
40932;DHT22;36257;46.052;12.540;2024-01-30T04:12:52;2.50;86.30
40932;DHT22;36257;46.052;12.540;2024-01-30T04:15:19;2.50;86.60
40932;DHT22;36257;46.052;12.540;2024-01-30T04:17:45;2.40;86.50
40932;DHT22;36257;46.052;12.540;2024-01-30T04:20:14;2.40;86.30
40932;DHT22;36257;46.052;12.540;2024-01-30T04:22:46;2.30;86.50
40932;DHT22;36257;46.052;12.540;2024-01-30T04:25:13;2.20;86.80
40932;DHT22;36257;46.052;12.540;2024-01-30T04:27:39;2.20;86.60
40932;DHT22;36257;46.052;12.540;2024-01-30T04:30:05;2.20;86.80
40932;DHT22;36257;46.052;12.540;2024-01-30T04:32:31;2.20;86.90
40932;DHT22;36257;46.052;12.540;2024-01-30T04:34:57;2.20;86.80
40932;DHT22;36257;46.052;12.540;2024-01-30T04:37:23;2.20;86.10
40932;DHT22;36257;46.052;12.540;2024-01-30T04:39:49;2.30;85.90
40932;DHT22;36257;46.052;12.540;2024-01-30T04:42:14;2.30;86.00
40932;DHT22;36257;46.052;12.540;2024-01-30T04:44:40;2.30;86.10
40932;DHT22;36257;46.052;12.540;2024-01-30T04:47:05;2.30;86.50
40932;DHT22;36257;46.052;12.540;2024-01-30T04:49:34;2.30;87.00
40932;DHT22;36257;46.052;12.540;2024-01-30T04:52:00;2.20;87.20
40932;DHT22;36257;46.052;12.540;2024-01-30T04:54:26;2.20;87.20
40932;DHT22;36257;46.052;12.540;2024-01-30T04:56:51;2.20;87.20
40932;DHT22;36257;46.052;12.540;2024-01-30T04:59:17;2.20;87.30
40932;DHT22;36257;46.052;12.540;2024-01-30T05:01:42;2.20;87.50
40932;DHT22;36257;46.052;12.540;2024-01-30T05:04:09;2.10;87.40
40932;DHT22;36257;46.052;12.540;2024-01-30T05:06:34;2.10;87.20
40932;DHT22;36257;46.052;12.540;2024-01-30T05:09:00;2.10;86.80
40932;DHT22;36257;46.052;12.540;2024-01-30T05:11:26;2.10;86.40
40932;DHT22;36257;46.052;12.540;2024-01-30T05:13:52;2.20;86.10
40932;DHT22;36257;46.052;12.540;2024-01-30T05:16:17;2.20;86.00
40932;DHT22;36257;46.052;12.540;2024-01-30T05:18:43;2.20;86.20
40932;DHT22;36257;46.052;12.540;2024-01-30T05:21:10;2.20;86.60
40932;DHT22;36257;46.052;12.540;2024-01-30T05:23:36;2.10;87.00
40932;DHT22;36257;46.052;12.540;2024-01-30T05:26:01;2.10;86.40
40932;DHT22;36257;46.052;12.540;2024-01-30T05:28:30;2.10;86.20
40932;DHT22;36257;46.052;12.540;2024-01-30T05:30:56;2.10;86.30
40932;DHT22;36257;46.052;12.540;2024-01-30T05:33:22;2.10;86.20
40932;DHT22;36257;46.052;12.540;2024-01-30T05:35:48;2.10;86.60
40932;DHT22;36257;46.052;12.540;2024-01-30T05:38:15;2.10;87.10
40932;DHT22;36257;46.052;12.540;2024-01-30T05:40:41;2.00;87.10
40932;DHT22;36257;46.052;12.540;2024-01-30T05:43:07;2.00;87.20
40932;DHT22;36257;46.052;12.540;2024-01-30T05:45:33;1.90;87.20
40932;DHT22;36257;46.052;12.540;2024-01-30T05:48:00;1.90;87.10
40932;DHT22;36257;46.052;12.540;2024-01-30T05:50:26;1.90;87.10
40932;DHT22;36257;46.052;12.540;2024-01-30T05:52:52;1.90;87.20
40932;DHT22;36257;46.052;12.540;2024-01-30T05:55:18;1.90;87.20
40932;DHT22;36257;46.052;12.540;2024-01-30T05:57:43;1.90;87.20
40932;DHT22;36257;46.052;12.540;2024-01-30T06:00:09;1.80;87.40
40932;DHT22;36257;46.052;12.540;2024-01-30T06:02:35;1.80;87.80
40932;DHT22;36257;46.052;12.540;2024-01-30T06:05:01;1.80;87.70
40932;DHT22;36257;46.052;12.540;2024-01-30T06:07:27;1.80;87.60
40932;DHT22;36257;46.052;12.540;2024-01-30T06:09:52;1.80;88.00
40932;DHT22;36257;46.052;12.540;2024-01-30T06:12:18;1.70;88.10
40932;DHT22;36257;46.052;12.540;2024-01-30T06:14:44;1.70;88.10
40932;DHT22;36257;46.052;12.540;2024-01-30T06:17:10;1.70;88.20
40932;DHT22;36257;46.052;12.540;2024-01-30T06:19:40;1.70;87.60
40932;DHT22;36257;46.052;12.540;2024-01-30T06:22:06;1.60;87.50
40932;DHT22;36257;46.052;12.540;2024-01-30T06:24:31;1.60;87.10
40932;DHT22;36257;46.052;12.540;2024-01-30T06:26:57;1.70;86.70
40932;DHT22;36257;46.052;12.540;2024-01-30T06:29:23;1.70;87.10
40932;DHT22;36257;46.052;12.540;2024-01-30T06:31:50;1.60;87.50
40932;DHT22;36257;46.052;12.540;2024-01-30T06:34:15;1.60;87.70
40932;DHT22;36257;46.052;12.540;2024-01-30T06:36:41;1.60;87.80
40932;DHT22;36257;46.052;12.540;2024-01-30T06:39:07;1.70;87.60
40932;DHT22;36257;46.052;12.540;2024-01-30T06:41:33;1.60;87.40
40932;DHT22;36257;46.052;12.540;2024-01-30T06:43:59;1.60;87.10
40932;DHT22;36257;46.052;12.540;2024-01-30T06:46:24;1.60;87.40
40932;DHT22;36257;46.052;12.540;2024-01-30T06:48:50;1.60;87.50
40932;DHT22;36257;46.052;12.540;2024-01-30T06:51:15;1.70;87.20
40932;DHT22;36257;46.052;12.540;2024-01-30T06:53:41;1.70;87.20
40932;DHT22;36257;46.052;12.540;2024-01-30T06:56:08;1.70;87.50
40932;DHT22;36257;46.052;12.540;2024-01-30T06:58:33;1.70;87.80
40932;DHT22;36257;46.052;12.540;2024-01-30T07:00:59;1.70;87.90
40932;DHT22;36257;46.052;12.540;2024-01-30T07:03:25;1.70;88.00
40932;DHT22;36257;46.052;12.540;2024-01-30T07:05:51;1.90;87.60
40932;DHT22;36257;46.052;12.540;2024-01-30T07:08:17;2.00;87.40
40932;DHT22;36257;46.052;12.540;2024-01-30T07:10:43;2.00;87.30
40932;DHT22;36257;46.052;12.540;2024-01-30T07:13:10;2.10;87.30
40932;DHT22;36257;46.052;12.540;2024-01-30T07:15:36;2.10;87.30
40932;DHT22;36257;46.052;12.540;2024-01-30T07:18:05;2.20;87.30
40932;DHT22;36257;46.052;12.540;2024-01-30T07:20:31;2.50;87.00
40932;DHT22;36257;46.052;12.540;2024-01-30T07:23:00;2.60;86.80
40932;DHT22;36257;46.052;12.540;2024-01-30T07:25:26;2.70;87.00
40932;DHT22;36257;46.052;12.540;2024-01-30T07:27:55;2.70;86.90
40932;DHT22;36257;46.052;12.540;2024-01-30T07:30:21;2.80;86.70
40932;DHT22;36257;46.052;12.540;2024-01-30T07:32:48;2.90;86.30
40932;DHT22;36257;46.052;12.540;2024-01-30T07:35:14;3.10;86.50
40932;DHT22;36257;46.052;12.540;2024-01-30T07:37:40;3.30;85.60
40932;DHT22;36257;46.052;12.540;2024-01-30T07:40:06;3.50;83.80
40932;DHT22;36257;46.052;12.540;2024-01-30T07:42:32;3.60;83.60
40932;DHT22;36257;46.052;12.540;2024-01-30T07:44:59;3.80;83.70
40932;DHT22;36257;46.052;12.540;2024-01-30T07:47:24;4.00;83.70
40932;DHT22;36257;46.052;12.540;2024-01-30T07:49:50;4.10;83.30
40932;DHT22;36257;46.052;12.540;2024-01-30T07:52:16;4.30;83.00
40932;DHT22;36257;46.052;12.540;2024-01-30T07:54:42;4.50;83.00
40932;DHT22;36257;46.052;12.540;2024-01-30T07:57:08;4.70;83.00
40932;DHT22;36257;46.052;12.540;2024-01-30T07:59:33;4.90;82.80
40932;DHT22;36257;46.052;12.540;2024-01-30T08:01:59;5.20;82.60
40932;DHT22;36257;46.052;12.540;2024-01-30T08:04:24;5.40;82.00
40932;DHT22;36257;46.052;12.540;2024-01-30T08:06:50;5.70;81.60
40932;DHT22;36257;46.052;12.540;2024-01-30T08:09:15;6.00;80.80
40932;DHT22;36257;46.052;12.540;2024-01-30T08:11:41;6.40;80.90
40932;DHT22;36257;46.052;12.540;2024-01-30T08:14:07;6.80;80.50
40932;DHT22;36257;46.052;12.540;2024-01-30T08:16:32;7.10;79.30
40932;DHT22;36257;46.052;12.540;2024-01-30T08:18:58;7.40;78.80
40932;DHT22;36257;46.052;12.540;2024-01-30T08:21:24;7.80;76.80
40932;DHT22;36257;46.052;12.540;2024-01-30T08:23:49;8.10;76.70
40932;DHT22;36257;46.052;12.540;2024-01-30T08:26:15;8.40;76.10
40932;DHT22;36257;46.052;12.540;2024-01-30T08:28:41;8.70;74.60
40932;DHT22;36257;46.052;12.540;2024-01-30T08:31:06;9.00;73.40
40932;DHT22;36257;46.052;12.540;2024-01-30T08:33:32;9.20;73.60
40932;DHT22;36257;46.052;12.540;2024-01-30T08:35:57;9.40;73.10
40932;DHT22;36257;46.052;12.540;2024-01-30T08:38:23;9.60;73.60
40932;DHT22;36257;46.052;12.540;2024-01-30T08:40:49;9.80;71.40
40932;DHT22;36257;46.052;12.540;2024-01-30T08:43:15;10.00;69.80
40932;DHT22;36257;46.052;12.540;2024-01-30T08:45:41;10.20;70.00
40932;DHT22;36257;46.052;12.540;2024-01-30T08:48:07;10.40;70.60
40932;DHT22;36257;46.052;12.540;2024-01-30T08:50:33;10.70;70.40
40932;DHT22;36257;46.052;12.540;2024-01-30T08:52:59;11.00;69.90
40932;DHT22;36257;46.052;12.540;2024-01-30T08:55:25;11.20;69.40
40932;DHT22;36257;46.052;12.540;2024-01-30T08:57:51;11.40;69.30
40932;DHT22;36257;46.052;12.540;2024-01-30T09:00:17;11.60;68.80
40932;DHT22;36257;46.052;12.540;2024-01-30T09:02:43;11.70;68.30
40932;DHT22;36257;46.052;12.540;2024-01-30T09:05:09;11.90;68.30
40932;DHT22;36257;46.052;12.540;2024-01-30T09:07:34;12.10;68.80
40932;DHT22;36257;46.052;12.540;2024-01-30T09:10:00;12.30;68.00
40932;DHT22;36257;46.052;12.540;2024-01-30T09:12:26;12.40;66.40
40932;DHT22;36257;46.052;12.540;2024-01-30T09:14:51;12.50;66.90
40932;DHT22;36257;46.052;12.540;2024-01-30T09:17:17;12.60;68.60
40932;DHT22;36257;46.052;12.540;2024-01-30T09:19:42;12.80;67.70
40932;DHT22;36257;46.052;12.540;2024-01-30T09:22:08;13.00;68.00
40932;DHT22;36257;46.052;12.540;2024-01-30T09:24:34;13.30;66.00
40932;DHT22;36257;46.052;12.540;2024-01-30T09:27:00;13.20;65.50
40932;DHT22;36257;46.052;12.540;2024-01-30T09:29:26;13.20;65.80
40932;DHT22;36257;46.052;12.540;2024-01-30T09:31:51;13.20;65.10
40932;DHT22;36257;46.052;12.540;2024-01-30T09:34:17;13.20;66.70
40932;DHT22;36257;46.052;12.540;2024-01-30T09:36:43;13.10;64.00
40932;DHT22;36257;46.052;12.540;2024-01-30T09:39:09;12.90;64.50
40932;DHT22;36257;46.052;12.540;2024-01-30T09:41:45;13.10;65.70
40932;DHT22;36257;46.052;12.540;2024-01-30T09:44:16;13.00;65.00
40932;DHT22;36257;46.052;12.540;2024-01-30T09:46:42;13.20;64.50
40932;DHT22;36257;46.052;12.540;2024-01-30T09:49:09;13.50;64.70
40932;DHT22;36257;46.052;12.540;2024-01-30T09:51:35;13.90;64.10
40932;DHT22;36257;46.052;12.540;2024-01-30T09:54:02;13.80;62.60
40932;DHT22;36257;46.052;12.540;2024-01-30T09:56:28;13.70;64.00
40932;DHT22;36257;46.052;12.540;2024-01-30T09:58:54;13.70;64.00
40932;DHT22;36257;46.052;12.540;2024-01-30T10:01:20;13.70;64.60
40932;DHT22;36257;46.052;12.540;2024-01-30T10:03:46;13.80;64.70
40932;DHT22;36257;46.052;12.540;2024-01-30T10:06:12;13.90;64.40
40932;DHT22;36257;46.052;12.540;2024-01-30T10:08:37;13.60;64.70
40932;DHT22;36257;46.052;12.540;2024-01-30T10:11:03;13.70;65.50
40932;DHT22;36257;46.052;12.540;2024-01-30T10:13:29;13.70;65.30
40932;DHT22;36257;46.052;12.540;2024-01-30T10:15:55;13.60;64.80
40932;DHT22;36257;46.052;12.540;2024-01-30T10:18:25;13.80;65.30
40932;DHT22;36257;46.052;12.540;2024-01-30T10:20:51;14.10;64.90
40932;DHT22;36257;46.052;12.540;2024-01-30T10:23:17;14.30;64.00
40932;DHT22;36257;46.052;12.540;2024-01-30T10:25:44;14.70;64.20
40932;DHT22;36257;46.052;12.540;2024-01-30T10:28:10;14.90;63.90
40932;DHT22;36257;46.052;12.540;2024-01-30T10:30:36;14.90;61.90
40932;DHT22;36257;46.052;12.540;2024-01-30T10:33:02;14.90;61.80
40932;DHT22;36257;46.052;12.540;2024-01-30T10:35:28;14.90;63.50
40932;DHT22;36257;46.052;12.540;2024-01-30T10:37:57;14.80;61.80
40932;DHT22;36257;46.052;12.540;2024-01-30T10:40:28;14.70;63.20
40932;DHT22;36257;46.052;12.540;2024-01-30T10:42:55;14.70;62.20
40932;DHT22;36257;46.052;12.540;2024-01-30T10:45:22;14.80;63.30
40932;DHT22;36257;46.052;12.540;2024-01-30T10:47:54;14.80;61.90
40932;DHT22;36257;46.052;12.540;2024-01-30T10:50:24;15.10;63.20
40932;DHT22;36257;46.052;12.540;2024-01-30T10:52:50;15.30;61.30
40932;DHT22;36257;46.052;12.540;2024-01-30T10:55:16;15.40;61.40
40932;DHT22;36257;46.052;12.540;2024-01-30T10:57:43;15.60;61.10
40932;DHT22;36257;46.052;12.540;2024-01-30T11:00:13;15.60;61.90
40932;DHT22;36257;46.052;12.540;2024-01-30T11:02:41;16.00;60.80
40932;DHT22;36257;46.052;12.540;2024-01-30T11:05:08;15.80;61.10
40932;DHT22;36257;46.052;12.540;2024-01-30T11:07:34;15.30;60.30
40932;DHT22;36257;46.052;12.540;2024-01-30T11:10:00;15.20;62.00
40932;DHT22;36257;46.052;12.540;2024-01-30T11:12:27;15.00;61.70
40932;DHT22;36257;46.052;12.540;2024-01-30T11:15:09;15.00;62.80
40932;DHT22;36257;46.052;12.540;2024-01-30T11:20:11;14.90;64.00
40932;DHT22;36257;46.052;12.540;2024-01-30T11:22:37;15.30;62.90
40932;DHT22;36257;46.052;12.540;2024-01-30T11:25:03;15.60;61.30
40932;DHT22;36257;46.052;12.540;2024-01-30T11:27:30;15.20;62.20
40932;DHT22;36257;46.052;12.540;2024-01-30T11:30:02;15.10;62.50
40932;DHT22;36257;46.052;12.540;2024-01-30T11:32:28;14.80;61.40
40932;DHT22;36257;46.052;12.540;2024-01-30T11:34:54;14.80;62.50
40932;DHT22;36257;46.052;12.540;2024-01-30T11:37:21;15.40;63.40
40932;DHT22;36257;46.052;12.540;2024-01-30T11:39:51;15.90;61.60
40932;DHT22;36257;46.052;12.540;2024-01-30T11:42:16;16.50;60.50
40932;DHT22;36257;46.052;12.540;2024-01-30T11:44:47;16.50;59.20
40932;DHT22;36257;46.052;12.540;2024-01-30T11:47:13;16.70;59.70
40932;DHT22;36257;46.052;12.540;2024-01-30T11:49:39;16.50;58.00
40932;DHT22;36257;46.052;12.540;2024-01-30T11:52:05;16.40;59.10
40932;DHT22;36257;46.052;12.540;2024-01-30T11:54:31;16.50;60.50
40932;DHT22;36257;46.052;12.540;2024-01-30T11:56:57;16.40;59.00
40932;DHT22;36257;46.052;12.540;2024-01-30T11:59:22;16.70;58.30
40932;DHT22;36257;46.052;12.540;2024-01-30T12:01:48;16.90;57.90
40932;DHT22;36257;46.052;12.540;2024-01-30T12:04:15;16.70;58.90
40932;DHT22;36257;46.052;12.540;2024-01-30T12:06:40;16.30;59.00
40932;DHT22;36257;46.052;12.540;2024-01-30T12:09:06;16.30;59.30
40932;DHT22;36257;46.052;12.540;2024-01-30T12:11:48;16.40;60.10
40932;DHT22;36257;46.052;12.540;2024-01-30T12:14:15;16.70;60.00
40932;DHT22;36257;46.052;12.540;2024-01-30T12:16:41;16.90;59.10
40932;DHT22;36257;46.052;12.540;2024-01-30T12:19:07;17.10;59.20
40932;DHT22;36257;46.052;12.540;2024-01-30T12:21:34;16.90;57.40
40932;DHT22;36257;46.052;12.540;2024-01-30T12:24:00;16.70;58.80
40932;DHT22;36257;46.052;12.540;2024-01-30T12:26:26;16.30;59.80
40932;DHT22;36257;46.052;12.540;2024-01-30T12:28:55;16.20;59.70
40932;DHT22;36257;46.052;12.540;2024-01-30T12:31:27;16.20;60.70
40932;DHT22;36257;46.052;12.540;2024-01-30T12:33:54;16.60;60.90
40932;DHT22;36257;46.052;12.540;2024-01-30T12:36:21;16.80;60.00
40932;DHT22;36257;46.052;12.540;2024-01-30T12:38:47;17.00;59.20
40932;DHT22;36257;46.052;12.540;2024-01-30T12:41:12;17.00;58.60
40932;DHT22;36257;46.052;12.540;2024-01-30T12:43:38;16.80;60.10
40932;DHT22;36257;46.052;12.540;2024-01-30T12:46:04;17.20;59.90
40932;DHT22;36257;46.052;12.540;2024-01-30T12:48:31;17.40;59.20
40932;DHT22;36257;46.052;12.540;2024-01-30T12:50:56;18.00;59.60
40932;DHT22;36257;46.052;12.540;2024-01-30T12:53:22;18.60;58.60
40932;DHT22;36257;46.052;12.540;2024-01-30T12:55:48;18.40;56.40
40932;DHT22;36257;46.052;12.540;2024-01-30T12:58:15;18.30;56.90
40932;DHT22;36257;46.052;12.540;2024-01-30T13:00:41;18.40;56.60
40932;DHT22;36257;46.052;12.540;2024-01-30T13:03:09;18.30;57.40
40932;DHT22;36257;46.052;12.540;2024-01-30T13:05:35;18.50;57.90
40932;DHT22;36257;46.052;12.540;2024-01-30T13:08:01;18.50;55.70
40932;DHT22;36257;46.052;12.540;2024-01-30T13:10:26;18.30;56.20
40932;DHT22;36257;46.052;12.540;2024-01-30T13:12:53;18.20;58.50
40932;DHT22;36257;46.052;12.540;2024-01-30T13:15:18;18.40;56.80
40932;DHT22;36257;46.052;12.540;2024-01-30T13:17:44;18.60;56.50
40932;DHT22;36257;46.052;12.540;2024-01-30T13:20:13;18.70;56.40
40932;DHT22;36257;46.052;12.540;2024-01-30T13:22:43;18.30;56.10
40932;DHT22;36257;46.052;12.540;2024-01-30T13:25:08;18.10;57.00
40932;DHT22;36257;46.052;12.540;2024-01-30T13:27:35;17.90;57.00
40932;DHT22;36257;46.052;12.540;2024-01-30T13:30:01;18.00;57.00
40932;DHT22;36257;46.052;12.540;2024-01-30T13:32:26;17.90;57.10
40932;DHT22;36257;46.052;12.540;2024-01-30T13:34:52;17.80;58.80
40932;DHT22;36257;46.052;12.540;2024-01-30T13:37:18;17.90;57.20
40932;DHT22;36257;46.052;12.540;2024-01-30T13:39:43;18.40;58.30
40932;DHT22;36257;46.052;12.540;2024-01-30T13:42:09;18.40;56.10
40932;DHT22;36257;46.052;12.540;2024-01-30T13:44:35;18.30;55.90
40932;DHT22;36257;46.052;12.540;2024-01-30T13:47:01;18.00;56.40
40932;DHT22;36257;46.052;12.540;2024-01-30T13:49:27;18.00;56.40
40932;DHT22;36257;46.052;12.540;2024-01-30T13:51:53;18.30;56.80
40932;DHT22;36257;46.052;12.540;2024-01-30T13:54:18;18.60;56.80
40932;DHT22;36257;46.052;12.540;2024-01-30T13:56:44;18.90;56.80
40932;DHT22;36257;46.052;12.540;2024-01-30T13:59:10;18.40;56.10
40932;DHT22;36257;46.052;12.540;2024-01-30T14:01:36;18.00;56.50
40932;DHT22;36257;46.052;12.540;2024-01-30T14:04:01;17.80;58.50
40932;DHT22;36257;46.052;12.540;2024-01-30T14:06:27;17.90;57.70
40932;DHT22;36257;46.052;12.540;2024-01-30T14:08:53;18.10;58.00
40932;DHT22;36257;46.052;12.540;2024-01-30T14:11:19;18.10;56.40
40932;DHT22;36257;46.052;12.540;2024-01-30T14:13:45;18.00;57.40
40932;DHT22;36257;46.052;12.540;2024-01-30T14:16:10;18.10;56.80
40932;DHT22;36257;46.052;12.540;2024-01-30T14:18:36;17.90;57.30
40932;DHT22;36257;46.052;12.540;2024-01-30T14:21:02;18.10;58.30
40932;DHT22;36257;46.052;12.540;2024-01-30T14:23:28;17.90;57.40
40932;DHT22;36257;46.052;12.540;2024-01-30T14:25:53;17.40;57.20
40932;DHT22;36257;46.052;12.540;2024-01-30T14:28:19;17.10;58.20
40932;DHT22;36257;46.052;12.540;2024-01-30T14:30:45;17.00;59.60
40932;DHT22;36257;46.052;12.540;2024-01-30T14:33:11;17.00;60.10
40932;DHT22;36257;46.052;12.540;2024-01-30T14:35:37;16.80;59.40
40932;DHT22;36257;46.052;12.540;2024-01-30T14:38:03;16.60;60.30
40932;DHT22;36257;46.052;12.540;2024-01-30T14:40:30;16.20;59.70
40932;DHT22;36257;46.052;12.540;2024-01-30T14:42:56;15.80;60.60
40932;DHT22;36257;46.052;12.540;2024-01-30T14:45:22;15.80;61.10
40932;DHT22;36257;46.052;12.540;2024-01-30T14:47:47;15.70;60.60
40932;DHT22;36257;46.052;12.540;2024-01-30T14:50:13;15.50;61.80
40932;DHT22;36257;46.052;12.540;2024-01-30T14:52:42;15.60;62.60
40932;DHT22;36257;46.052;12.540;2024-01-30T14:55:07;15.70;62.10
40932;DHT22;36257;46.052;12.540;2024-01-30T14:57:33;15.60;61.80
40932;DHT22;36257;46.052;12.540;2024-01-30T15:00:00;15.40;61.60
40932;DHT22;36257;46.052;12.540;2024-01-30T15:02:26;15.10;62.20
40932;DHT22;36257;46.052;12.540;2024-01-30T15:04:51;14.70;62.90
40932;DHT22;36257;46.052;12.540;2024-01-30T15:07:17;14.30;64.00
40932;DHT22;36257;46.052;12.540;2024-01-30T15:09:43;14.10;64.60
40932;DHT22;36257;46.052;12.540;2024-01-30T15:12:08;13.90;65.00
40932;DHT22;36257;46.052;12.540;2024-01-30T15:14:34;13.70;66.00
40932;DHT22;36257;46.052;12.540;2024-01-30T15:17:00;13.50;66.70
40932;DHT22;36257;46.052;12.540;2024-01-30T15:19:27;13.50;66.60
40932;DHT22;36257;46.052;12.540;2024-01-30T15:21:52;13.50;66.90